Time;durP1;ratioP1;P1;durP2;ratioP2;P2;SDS_P1;SDS_P2;PMS_P1;PMS_P2;Temp;Humidity;BMP_temperature;BMP_pressure;BME280_temperature;BME280_humidity;BME280_pressure;Samples;Min_cycle;Max_cycle;Signal;HPM_P1;HPM_P2
2022/03/27 00:01:04;;;;;;;;;35.00;32.00;;;;;-146.03;100.00;60875.16;4962943;28;45758;-81
2022/03/27 00:03:30;;;;;;;;;38.00;30.75;;;;;-146.03;100.00;60875.16;4969787;28;45453;-82
2022/03/27 00:05:55;;;;;;;;;36.75;33.75;;;;;-146.03;100.00;60875.16;4971697;28;45488;-82
2022/03/27 00:08:21;;;;;;;;;46.25;34.25;;;;;-146.03;100.00;60875.16;4968028;28;46422;-82
2022/03/27 00:13:33;;;;;;;;;44.50;36.25;;;;;-146.03;100.00;60875.16;4966228;28;45481;-82
2022/03/27 00:15:59;;;;;;;;;42.25;33.00;;;;;-146.03;100.00;60875.16;4966185;28;45471;-82
2022/03/27 00:18:24;;;;;;;;;48.75;36.75;;;;;-146.03;100.00;60875.16;4967096;28;45888;-81
2022/03/27 00:20:51;;;;;;;;;44.75;37.50;;;;;-146.03;100.00;60875.16;4973028;28;45443;-82
2022/03/27 00:23:19;;;;;;;;;43.00;35.25;;;;;-146.03;100.00;60875.16;4969673;28;45630;-82
2022/03/27 00:25:45;;;;;;;;;50.50;34.75;;;;;-146.03;100.00;60875.16;4974129;28;45326;-82
2022/03/27 00:28:12;;;;;;;;;43.00;34.25;;;;;-146.03;100.00;60875.16;4965768;28;46121;-82
2022/03/27 00:30:38;;;;;;;;;42.50;36.00;;;;;-146.03;100.00;60875.16;4967810;28;45501;-84
2022/03/27 00:33:04;;;;;;;;;46.50;36.00;;;;;-146.03;100.00;60875.16;4966463;28;45597;-82
2022/03/27 00:35:29;;;;;;;;;49.00;38.00;;;;;-146.03;100.00;60875.16;4966076;28;45537;-82
2022/03/27 00:37:55;;;;;;;;;40.25;35.25;;;;;-146.03;100.00;60875.16;4968002;28;46014;-83
2022/03/27 00:40:20;;;;;;;;;47.50;38.25;;;;;-146.03;100.00;60875.16;4970022;28;63789;-82
2022/03/27 00:42:46;;;;;;;;;43.75;36.25;;;;;-146.03;100.00;60875.16;4971607;28;45606;-82
2022/03/27 00:45:11;;;;;;;;;47.75;37.50;;;;;-146.03;100.00;60875.16;4966788;28;47645;-82
2022/03/27 00:47:36;;;;;;;;;47.00;38.25;;;;;-146.03;100.00;60875.16;4970060;28;45886;-82
2022/03/27 00:50:02;;;;;;;;;44.50;38.75;;;;;-146.03;100.00;60875.16;4968779;28;45601;-83
2022/03/27 00:52:27;;;;;;;;;43.75;36.50;;;;;-146.03;100.00;60875.16;4969359;28;45517;-82
2022/03/27 00:54:53;;;;;;;;;45.75;36.00;;;;;-146.03;100.00;60875.16;4967686;28;45438;-83
2022/03/27 00:57:18;;;;;;;;;43.25;35.50;;;;;-146.03;100.00;60875.16;4972432;28;45495;-82
2022/03/27 00:59:43;;;;;;;;;48.00;38.25;;;;;-146.03;100.00;60875.16;4968338;28;46286;-81
2022/03/27 01:02:10;;;;;;;;;44.00;37.00;;;;;-146.03;100.00;60875.16;4968936;28;45574;-81
2022/03/27 01:04:41;;;;;;;;;51.00;40.75;;;;;-146.03;100.00;60875.16;4974197;28;45662;-82
2022/03/27 01:07:07;;;;;;;;;44.25;34.50;;;;;-146.03;100.00;60875.16;4970936;28;46190;-81
2022/03/27 01:09:38;;;;;;;;;42.25;35.25;;;;;-146.03;100.00;60875.16;4971463;28;45510;-81
2022/03/27 01:12:15;;;;;;;;;49.25;37.00;;;;;-146.03;100.00;60875.16;4966511;28;45419;-81
2022/03/27 01:14:41;;;;;;;;;48.50;36.25;;;;;-146.03;100.00;60875.16;4972388;28;45709;-81
2022/03/27 01:17:09;;;;;;;;;47.75;37.00;;;;;-146.03;100.00;60875.16;4967141;28;46060;-82
2022/03/27 01:19:43;;;;;;;;;43.50;36.00;;;;;-146.03;100.00;60875.16;4964035;28;45391;-81
2022/03/27 01:22:10;;;;;;;;;45.00;36.25;;;;;-146.03;100.00;60875.16;4965050;28;45507;-82
2022/03/27 01:24:35;;;;;;;;;45.50;36.75;;;;;-146.03;100.00;60875.16;4973749;28;46047;-81
2022/03/27 01:27:01;;;;;;;;;46.50;37.50;;;;;-146.03;100.00;60875.16;4969104;28;48049;-81
2022/03/27 01:29:26;;;;;;;;;44.00;35.25;;;;;-146.03;100.00;60875.16;4968196;28;45481;-80
2022/03/27 01:31:53;;;;;;;;;47.50;39.00;;;;;-146.03;100.00;60875.16;4959204;28;45398;-81
2022/03/27 01:34:18;;;;;;;;;51.00;39.50;;;;;-146.03;100.00;60875.16;4967971;28;45492;-82
2022/03/27 01:36:44;;;;;;;;;46.00;37.25;;;;;-146.03;100.00;60875.16;4964133;28;45391;-81
2022/03/27 01:39:12;;;;;;;;;47.25;36.50;;;;;-146.03;100.00;60875.16;4970549;28;46110;-82
2022/03/27 01:41:39;;;;;;;;;45.50;36.00;;;;;-146.03;100.00;60875.16;4972613;28;45513;-81
2022/03/27 01:44:07;;;;;;;;;45.75;37.00;;;;;-146.03;100.00;60875.16;4963594;28;45486;-82
2022/03/27 01:46:35;;;;;;;;;50.75;38.75;;;;;-146.03;100.00;60875.16;4973859;28;45530;-82
2022/03/27 01:49:01;;;;;;;;;47.75;36.25;;;;;-146.03;100.00;60875.16;4970843;28;46430;-82
2022/03/27 01:51:28;;;;;;;;;45.00;36.75;;;;;-146.03;100.00;60875.16;4971385;28;45623;-82
2022/03/27 01:53:54;;;;;;;;;45.75;38.50;;;;;-146.03;100.00;60875.16;4969557;28;45403;-83
2022/03/27 01:56:19;;;;;;;;;48.75;39.25;;;;;-146.03;100.00;60875.16;4971645;28;47054;-82
2022/03/27 01:58:44;;;;;;;;;46.25;38.00;;;;;-146.03;100.00;60875.16;4970018;28;45451;-83
2022/03/27 02:01:10;;;;;;;;;42.25;36.75;;;;;-146.03;100.00;60875.16;4966721;28;45935;-82
2022/03/27 02:03:36;;;;;;;;;50.00;40.00;;;;;-146.03;100.00;60875.16;4972462;28;45416;-82
2022/03/27 02:06:05;;;;;;;;;48.75;37.75;;;;;-146.03;100.00;60875.16;4971648;28;45604;-83
2022/03/27 02:08:33;;;;;;;;;47.50;37.00;;;;;-146.03;100.00;60875.16;4965173;28;45542;-82
2022/03/27 02:10:59;;;;;;;;;44.50;37.50;;;;;-146.03;100.00;60875.16;4979607;28;45340;-82
2022/03/27 02:13:25;;;;;;;;;48.25;40.75;;;;;-146.03;100.00;60875.16;4968319;28;45474;-82
2022/03/27 02:15:53;;;;;;;;;48.75;38.75;;;;;-146.03;100.00;60875.16;4972212;28;46230;-82
2022/03/27 02:18:19;;;;;;;;;53.25;41.25;;;;;-146.03;100.00;60875.16;4972220;28;45624;-82
2022/03/27 02:20:44;;;;;;;;;37.00;31.00;;;;;-146.03;100.00;60875.16;4975011;28;45517;-82
2022/03/27 02:23:14;;;;;;;;;45.75;37.25;;;;;-146.03;100.00;60875.16;4970903;28;45415;-82
2022/03/27 02:25:40;;;;;;;;;44.00;37.00;;;;;-146.03;100.00;60875.16;4972212;28;45458;-82
2022/03/27 02:28:07;;;;;;;;;49.25;40.00;;;;;-146.03;100.00;60875.16;4969596;28;45467;-82
2022/03/27 02:30:32;;;;;;;;;47.75;36.75;;;;;-146.03;100.00;60875.16;4970890;28;45443;-83
2022/03/27 02:32:58;;;;;;;;;51.25;40.25;;;;;-146.03;100.00;60875.16;4972644;28;45487;-82
2022/03/27 02:35:23;;;;;;;;;45.50;37.00;;;;;-146.03;100.00;60875.16;4966730;28;46208;-82
2022/03/27 02:37:49;;;;;;;;;43.75;38.25;;;;;-146.03;100.00;60875.16;4976757;28;45509;-82
2022/03/27 02:40:14;;;;;;;;;49.00;40.25;;;;;-146.03;100.00;60875.16;4964465;28;45527;-82
2022/03/27 02:42:40;;;;;;;;;48.75;40.00;;;;;-146.03;100.00;60875.16;4968488;28;45486;-82
2022/03/27 02:45:06;;;;;;;;;51.00;36.00;;;;;-146.03;100.00;60875.16;4971688;28;46832;-81
2022/03/27 02:47:32;;;;;;;;;49.50;40.50;;;;;-146.03;100.00;60875.16;4972964;28;45400;-82
2022/03/27 02:49:57;;;;;;;;;47.25;36.75;;;;;-146.03;100.00;60875.16;4968211;28;45463;-82
2022/03/27 02:52:23;;;;;;;;;49.25;39.75;;;;;-146.03;100.00;60875.16;4975939;28;45469;-82
2022/03/27 02:54:48;;;;;;;;;43.25;36.00;;;;;-146.03;100.00;60875.16;4974728;28;45620;-83
2022/03/27 02:57:15;;;;;;;;;38.75;31.50;;;;;-146.03;100.00;60875.16;4974315;28;49455;-83
2022/03/27 02:59:40;;;;;;;;;49.00;38.25;;;;;-146.03;100.00;60875.16;4973969;28;45319;-83
2022/03/27 03:02:06;;;;;;;;;46.75;38.75;;;;;-146.03;100.00;60875.16;4970886;28;45205;-83
2022/03/27 03:04:34;;;;;;;;;46.00;37.50;;;;;-146.03;100.00;60875.16;4976249;28;46113;-83
2022/03/27 03:07:00;;;;;;;;;46.25;37.25;;;;;-146.03;100.00;60875.16;4968997;28;46166;-82
2022/03/27 03:09:26;;;;;;;;;49.00;39.50;;;;;-146.03;100.00;60875.16;4966530;28;45502;-83
2022/03/27 03:11:51;;;;;;;;;46.50;37.75;;;;;-146.03;100.00;60875.16;4964663;28;45458;-82
2022/03/27 03:14:17;;;;;;;;;46.25;37.25;;;;;-146.03;100.00;60875.16;4967753;28;45711;-83
2022/03/27 03:16:44;;;;;;;;;46.00;37.00;;;;;-146.03;100.00;60875.16;4972107;28;45477;-83
2022/03/27 03:19:09;;;;;;;;;41.75;35.50;;;;;-146.03;100.00;60875.16;4969591;28;45501;-83
2022/03/27 03:21:35;;;;;;;;;38.75;35.00;;;;;-146.03;100.00;60875.16;4965980;28;45472;-82
2022/03/27 03:24:00;;;;;;;;;44.25;34.50;;;;;-146.03;100.00;60875.16;4971112;28;46101;-84
2022/03/27 03:26:26;;;;;;;;;40.25;35.50;;;;;-146.03;100.00;60875.16;4962994;28;45529;-83
2022/03/27 03:28:51;;;;;;;;;43.75;36.00;;;;;-146.03;100.00;60875.16;4964129;28;45868;-82
2022/03/27 03:31:17;;;;;;;;;42.75;34.25;;;;;-146.03;100.00;60875.16;4969366;28;45482;-82
2022/03/27 03:33:42;;;;;;;;;36.50;32.00;;;;;-146.03;100.00;60875.16;4973242;28;46151;-82
2022/03/27 03:36:07;;;;;;;;;48.00;36.50;;;;;-146.03;100.00;60875.16;4973153;28;45370;-82
2022/03/27 03:38:33;;;;;;;;;48.50;36.75;;;;;-146.03;100.00;60875.16;4962543;28;45348;-83
2022/03/27 03:41:01;;;;;;;;;45.00;36.25;;;;;-146.03;100.00;60875.16;4973714;28;45453;-83
2022/03/27 03:43:26;;;;;;;;;41.75;32.25;;;;;-146.03;100.00;60875.16;4975978;28;45481;-82
2022/03/27 03:45:51;;;;;;;;;41.00;34.75;;;;;-146.03;100.00;60875.16;4975181;28;45470;-82
2022/03/27 03:48:17;;;;;;;;;43.00;34.50;;;;;-146.03;100.00;60875.16;4972695;28;45647;-82
2022/03/27 03:50:43;;;;;;;;;39.50;32.25;;;;;-146.03;100.00;60875.16;4964527;28;45425;-82
2022/03/27 03:53:09;;;;;;;;;40.25;33.75;;;;;-146.03;100.00;60875.16;4960339;28;46659;-82
2022/03/27 03:55:35;;;;;;;;;44.00;36.50;;;;;-146.03;100.00;60875.16;4971634;28;45343;-82
2022/03/27 03:58:02;;;;;;;;;49.25;37.75;;;;;-146.03;100.00;60875.16;4971976;28;45319;-82
2022/03/27 04:00:27;;;;;;;;;40.00;32.00;;;;;-146.03;100.00;60875.16;4972082;28;45461;-82
2022/03/27 04:02:53;;;;;;;;;40.50;34.00;;;;;-146.03;100.00;60875.16;4971785;28;48574;-82
2022/03/27 04:05:19;;;;;;;;;37.75;34.00;;;;;-146.03;100.00;60875.16;4976088;28;46189;-82
2022/03/27 04:07:44;;;;;;;;;38.25;32.50;;;;;-146.03;100.00;60875.16;4972817;28;45358;-82
2022/03/27 04:10:10;;;;;;;;;42.75;34.75;;;;;-146.03;100.00;60875.16;4971685;28;45601;-82
2022/03/27 04:12:35;;;;;;;;;34.00;32.00;;;;;-146.03;100.00;60875.16;4964359;28;46052;-82
2022/03/27 04:15:00;;;;;;;;;37.50;32.00;;;;;-146.03;100.00;60875.16;4958093;28;45375;-82
2022/03/27 04:17:26;;;;;;;;;39.75;36.00;;;;;-146.03;100.00;60875.16;4959908;28;45435;-82
2022/03/27 04:19:51;;;;;;;;;39.00;33.00;;;;;-146.03;100.00;60875.16;4957407;28;45450;-82
2022/03/27 04:22:17;;;;;;;;;37.50;33.00;;;;;-146.03;100.00;60875.16;4959013;28;46289;-82
2022/03/27 04:24:43;;;;;;;;;38.25;34.00;;;;;-146.03;100.00;60875.16;4957931;28;45605;-82
2022/03/27 04:27:08;;;;;;;;;34.50;31.50;;;;;-146.03;100.00;60875.16;4959713;28;45431;-82
2022/03/27 04:29:34;;;;;;;;;33.75;32.00;;;;;-146.03;100.00;60875.16;4958043;28;45716;-82
2022/03/27 04:31:59;;;;;;;;;40.00;34.00;;;;;-146.03;100.00;60875.16;4957243;28;45510;-82
2022/03/27 04:34:24;;;;;;;;;33.50;29.25;;;;;-146.03;100.00;60875.16;4959058;28;45422;-82
2022/03/27 04:36:50;;;;;;;;;41.25;34.25;;;;;-146.03;100.00;60875.16;4959048;28;45442;-82
2022/03/27 04:39:15;;;;;;;;;35.75;30.00;;;;;-146.03;100.00;60875.16;4959221;28;45437;-82
2022/03/27 04:41:41;;;;;;;;;35.00;31.75;;;;;-146.03;100.00;60875.16;4959227;28;45527;-82
2022/03/27 04:44:07;;;;;;;;;33.25;28.75;;;;;-146.03;100.00;60875.16;4957483;28;46628;-82
2022/03/27 04:46:33;;;;;;;;;38.50;32.50;;;;;-146.03;100.00;60875.16;4957155;28;45408;-82
2022/03/27 04:48:58;;;;;;;;;34.50;31.50;;;;;-146.03;100.00;60875.16;4959316;28;45418;-82
2022/03/27 04:51:23;;;;;;;;;38.25;33.50;;;;;-146.03;100.00;60875.16;4958565;28;45607;-82
2022/03/27 04:53:49;;;;;;;;;29.75;28.50;;;;;-146.03;100.00;60875.16;4959097;28;45447;-82
2022/03/27 04:56:15;;;;;;;;;31.50;28.25;;;;;-146.03;100.00;60875.16;4958116;28;45586;-82
2022/03/27 04:58:41;;;;;;;;;33.50;30.75;;;;;-146.03;100.00;60875.16;4957058;28;45312;-82
2022/03/27 05:01:07;;;;;;;;;35.25;32.00;;;;;-146.03;100.00;60875.16;4958902;28;45304;-82
2022/03/27 05:03:32;;;;;;;;;34.00;31.25;;;;;-146.03;100.00;60875.16;4958704;28;45744;-82
2022/03/27 05:05:59;;;;;;;;;31.75;31.00;;;;;-146.03;100.00;60875.16;4958471;28;45421;-82
2022/03/27 05:08:24;;;;;;;;;39.00;33.75;;;;;-146.03;100.00;60875.16;4957836;28;45465;-82
2022/03/27 05:10:50;;;;;;;;;31.50;30.00;;;;;-146.03;100.00;60875.16;4956543;28;46748;-82
2022/03/27 05:13:17;;;;;;;;;36.75;32.25;;;;;-146.03;100.00;60875.16;4961689;28;45442;-82
2022/03/27 05:15:43;;;;;;;;;39.25;33.75;;;;;-146.03;100.00;60875.16;4961667;28;49745;-82
2022/03/27 05:18:08;;;;;;;;;36.25;34.00;;;;;-146.03;100.00;60875.16;4961620;28;45420;-82
2022/03/27 05:20:38;;;;;;;;;37.00;32.00;;;;;-146.03;100.00;60875.16;4958867;28;45498;-82
2022/03/27 05:23:04;;;;;;;;;34.00;30.25;;;;;-146.03;100.00;60875.16;4958821;28;45518;-82
2022/03/27 05:25:29;;;;;;;;;35.75;32.25;;;;;-146.03;100.00;60875.16;4960894;28;45547;-82
2022/03/27 05:27:58;;;;;;;;;32.00;29.50;;;;;-146.03;100.00;60875.16;4961470;28;45386;-82
2022/03/27 05:30:25;;;;;;;;;37.00;32.25;;;;;-146.03;100.00;60875.16;4961265;28;45580;-82
2022/03/27 05:32:53;;;;;;;;;31.75;31.00;;;;;-146.03;100.00;60875.16;4961290;28;45470;-82
2022/03/27 05:35:20;;;;;;;;;28.50;27.00;;;;;-146.03;100.00;60875.16;4957124;28;45473;-82
2022/03/27 05:37:46;;;;;;;;;36.50;30.00;;;;;-146.03;100.00;60875.16;4960478;28;45221;-82
2022/03/27 05:40:15;;;;;;;;;33.00;32.00;;;;;-146.03;100.00;60875.16;4961072;28;45463;-82
2022/03/27 05:42:42;;;;;;;;;32.50;29.25;;;;;-146.03;100.00;60875.16;4961128;28;45587;-82
2022/03/27 05:45:09;;;;;;;;;34.75;32.00;;;;;-146.03;100.00;60875.16;4961353;28;45502;-82
2022/03/27 05:47:37;;;;;;;;;40.50;33.50;;;;;-146.03;100.00;60875.16;4960290;28;45332;-82
2022/03/27 05:50:04;;;;;;;;;36.25;33.00;;;;;-146.03;100.00;60875.16;4961672;28;45532;-82
2022/03/27 05:52:29;;;;;;;;;33.50;32.50;;;;;-146.03;100.00;60875.16;4963756;28;45467;-82
2022/03/27 05:54:56;;;;;;;;;40.25;33.50;;;;;-146.03;100.00;60875.16;4964458;28;45619;-82
2022/03/27 05:57:21;;;;;;;;;23.75;21.25;;;;;-146.03;100.00;60875.16;4964445;28;45530;-82
2022/03/27 05:59:48;;;;;;;;;32.25;30.25;;;;;-146.03;100.00;60875.16;4964059;28;46218;-82
2022/03/27 06:02:14;;;;;;;;;29.50;28.00;;;;;-146.03;100.00;60875.16;4964388;28;45521;-82
2022/03/27 06:04:41;;;;;;;;;32.75;30.25;;;;;-146.03;100.00;60875.16;4978107;28;45757;-82
2022/03/27 06:07:07;;;;;;;;;31.50;31.25;;;;;-146.03;100.00;60875.16;4962395;28;45521;-82
2022/03/27 06:09:35;;;;;;;;;38.00;31.50;;;;;-146.03;100.00;60875.16;4960996;28;45909;-82
2022/03/27 06:12:02;;;;;;;;;34.00;26.50;;;;;-146.03;100.00;60875.16;4965566;28;45426;-82
2022/03/27 06:14:28;;;;;;;;;29.00;27.25;;;;;-146.03;100.00;60875.16;4960572;28;45442;-82
2022/03/27 06:16:53;;;;;;;;;31.75;27.75;;;;;-146.03;100.00;60875.16;4959423;28;45351;-82
2022/03/27 06:19:18;;;;;;;;;34.25;31.75;;;;;-146.03;100.00;60875.16;4969063;28;46106;-82
2022/03/27 06:21:45;;;;;;;;;33.00;26.50;;;;;-146.03;100.00;60875.16;4965176;28;45493;-82
2022/03/27 06:24:10;;;;;;;;;38.50;33.50;;;;;-146.03;100.00;60875.16;4976027;28;45488;-82
2022/03/27 06:26:36;;;;;;;;;36.50;32.25;;;;;-146.03;100.00;60875.16;4974688;28;45565;-82
2022/03/27 06:29:02;;;;;;;;;32.75;28.75;;;;;-146.03;100.00;60875.16;4959482;28;46065;-82
2022/03/27 06:31:27;;;;;;;;;37.50;32.75;;;;;-146.03;100.00;60875.16;4966291;28;46310;-82
2022/03/27 06:33:52;;;;;;;;;36.75;31.25;;;;;-146.03;100.00;60875.16;4963502;28;45571;-82
2022/03/27 06:36:18;;;;;;;;;42.50;33.50;;;;;-146.03;100.00;60875.16;4960802;28;45385;-82
2022/03/27 06:38:43;;;;;;;;;33.25;31.00;;;;;-146.03;100.00;60875.16;4963033;28;45417;-82
2022/03/27 06:41:09;;;;;;;;;36.00;30.25;;;;;-146.03;100.00;60875.16;4958037;28;45742;-82
2022/03/27 06:43:36;;;;;;;;;36.00;33.50;;;;;-146.03;100.00;60875.16;4972358;28;53834;-82
2022/03/27 06:46:02;;;;;;;;;34.00;31.25;;;;;-146.03;100.00;60875.16;4964889;28;45494;-82
2022/03/27 06:48:27;;;;;;;;;36.75;32.00;;;;;-146.03;100.00;60875.16;4972487;28;48073;-82
2022/03/27 06:50:53;;;;;;;;;35.00;32.25;;;;;-146.03;100.00;60875.16;4970105;28;45960;-82
2022/03/27 06:53:20;;;;;;;;;28.50;28.50;;;;;-146.03;100.00;60875.16;4961220;28;45557;-82
2022/03/27 06:55:48;;;;;;;;;34.75;31.00;;;;;-146.03;100.00;60875.16;4974505;28;45260;-82
2022/03/27 06:58:14;;;;;;;;;32.00;29.50;;;;;-146.03;100.00;60875.16;4960317;28;47080;-82
2022/03/27 07:03:24;;;;;;;;;32.75;29.75;;;;;-146.03;100.00;60875.16;4960309;28;45674;-82
2022/03/27 07:05:50;;;;;;;;;33.50;32.50;;;;;-146.03;100.00;60875.16;4960742;28;45360;-82
2022/03/27 07:08:17;;;;;;;;;36.00;32.00;;;;;-146.03;100.00;60875.16;4960226;28;46077;-82
2022/03/27 07:10:44;;;;;;;;;32.75;30.00;;;;;-146.03;100.00;60875.16;4965076;28;45561;-82
2022/03/27 07:13:12;;;;;;;;;32.00;30.25;;;;;-146.03;100.00;60875.16;4961083;28;45410;-82
2022/03/27 07:15:38;;;;;;;;;34.50;31.75;;;;;-146.03;100.00;60875.16;4960487;28;45308;-82
2022/03/27 07:18:05;;;;;;;;;40.25;32.25;;;;;-146.03;100.00;60875.16;4959811;28;45460;-82
2022/03/27 07:20:32;;;;;;;;;37.50;34.00;;;;;-146.03;100.00;60875.16;4960408;28;45312;-81
2022/03/27 07:23:01;;;;;;;;;32.00;28.50;;;;;-146.03;100.00;60875.16;4960272;28;45437;-82
2022/03/27 07:25:28;;;;;;;;;28.75;26.00;;;;;-146.03;100.00;60875.16;4972214;28;45605;-82
2022/03/27 07:27:54;;;;;;;;;37.50;30.00;;;;;-146.03;100.00;60875.16;4959764;28;46293;-82
2022/03/27 07:30:21;;;;;;;;;30.25;27.75;;;;;-146.03;100.00;60875.16;4960362;28;45494;-82
2022/03/27 07:32:47;;;;;;;;;32.75;31.25;;;;;-146.03;100.00;60875.16;4960238;28;45517;-82
2022/03/27 07:35:14;;;;;;;;;35.75;32.25;;;;;-146.03;100.00;60875.16;4965634;28;45550;-82
2022/03/27 07:37:41;;;;;;;;;33.00;28.50;;;;;-146.03;100.00;60875.16;4978400;28;47026;-82
2022/03/27 07:40:08;;;;;;;;;30.75;28.75;;;;;-146.03;100.00;60875.16;4960456;28;45521;-82
2022/03/27 07:42:36;;;;;;;;;28.50;27.25;;;;;-146.03;100.00;60875.16;4960033;28;45832;-82
2022/03/27 07:45:01;;;;;;;;;30.50;23.25;;;;;-146.03;100.00;60875.16;4959710;28;45510;-82
2022/03/27 07:47:26;;;;;;;;;33.75;31.25;;;;;-146.03;100.00;60875.16;4960201;28;45513;-82
2022/03/27 07:49:51;;;;;;;;;33.25;31.00;;;;;-146.03;100.00;60875.16;4957535;28;47813;-82
2022/03/27 07:52:17;;;;;;;;;38.00;31.50;;;;;-146.03;100.00;60875.16;4972419;28;45486;-82
2022/03/27 07:54:43;;;;;;;;;31.00;29.75;;;;;-146.03;100.00;60875.16;4963828;28;45540;-82
2022/03/27 07:57:08;;;;;;;;;31.00;29.75;;;;;-146.03;100.00;60875.16;4959503;28;45898;-82
2022/03/27 07:59:34;;;;;;;;;32.25;29.25;;;;;-146.03;100.00;60875.16;4959155;28;45460;-82
2022/03/27 08:02:01;;;;;;;;;32.25;27.75;;;;;-146.03;100.00;60875.16;4957757;28;45337;-82
2022/03/27 08:04:26;;;;;;;;;29.00;28.00;;;;;-146.03;100.00;60875.16;4959453;28;45528;-82
2022/03/27 08:06:52;;;;;;;;;34.50;29.50;;;;;-146.03;100.00;60875.16;4959353;28;45242;-82
2022/03/27 08:09:17;;;;;;;;;33.25;30.00;;;;;-146.03;100.00;60875.16;4959665;28;45220;-82
2022/03/27 08:11:42;;;;;;;;;31.75;29.00;;;;;-146.03;100.00;60875.16;4961656;28;46124;-81
2022/03/27 08:14:09;;;;;;;;;40.25;34.00;;;;;-146.03;100.00;60875.16;4975715;28;45196;-82
2022/03/27 08:16:36;;;;;;;;;38.00;33.00;;;;;-146.03;100.00;60875.16;4958154;28;46337;-82
2022/03/27 08:19:01;;;;;;;;;35.00;27.75;;;;;-146.03;100.00;60875.16;4959598;28;45626;-82
2022/03/27 08:21:28;;;;;;;;;32.50;29.00;;;;;-146.03;100.00;60875.16;4959459;28;45383;-82
2022/03/27 08:23:53;;;;;;;;;32.50;29.25;;;;;-146.03;100.00;60875.16;4959541;28;45463;-82
2022/03/27 08:29:03;;;;;;;;;33.00;29.25;;;;;-146.03;100.00;60875.16;4957209;28;45498;-82
2022/03/27 08:31:30;;;;;;;;;33.50;30.75;;;;;-146.03;100.00;60875.16;4961629;28;45538;-82
2022/03/27 08:33:56;;;;;;;;;30.00;27.25;;;;;-146.03;100.00;60875.16;4969872;28;45469;-82
2022/03/27 08:36:21;;;;;;;;;31.50;30.50;;;;;-146.03;100.00;60875.16;4973470;28;47054;-82
2022/03/27 08:38:46;;;;;;;;;35.25;30.25;;;;;-146.03;100.00;60875.16;4970995;28;45415;-82
2022/03/27 08:41:15;;;;;;;;;31.50;27.50;;;;;-146.03;100.00;60875.16;4958605;28;45406;-82
2022/03/27 08:43:43;;;;;;;;;30.25;29.00;;;;;-146.03;100.00;60875.16;4956557;28;45510;-82
2022/03/27 08:46:09;;;;;;;;;29.50;27.25;;;;;-146.03;100.00;60875.16;4958921;28;45660;-82
2022/03/27 08:48:37;;;;;;;;;32.00;26.25;;;;;-146.03;100.00;60875.16;4958971;28;45934;-82
2022/03/27 08:51:25;;;;;;;;;30.50;27.25;;;;;-146.03;100.00;60875.16;4958096;28;45314;-82
2022/03/27 08:54:02;;;;;;;;;31.50;27.50;;;;;-146.03;100.00;60875.16;4961129;28;45583;-82
2022/03/27 08:56:29;;;;;;;;;26.25;25.75;;;;;-146.03;100.00;60875.16;4957838;28;47126;-81
2022/03/27 08:58:58;;;;;;;;;30.75;27.50;;;;;-146.03;100.00;60875.16;4956730;28;45418;-82
2022/03/27 09:01:24;;;;;;;;;34.25;28.25;;;;;-146.03;100.00;60875.16;4982815;28;45434;-82
2022/03/27 09:03:50;;;;;;;;;27.75;26.25;;;;;-146.03;100.00;60875.16;4961887;28;45545;-82
2022/03/27 09:06:15;;;;;;;;;28.50;27.75;;;;;-146.03;100.00;60875.16;4961221;28;45351;-81
2022/03/27 09:08:41;;;;;;;;;34.00;30.00;;;;;-146.03;100.00;60875.16;4960364;28;45490;-82
2022/03/27 09:11:15;;;;;;;;;32.00;27.50;;;;;-146.03;100.00;60875.16;4958515;28;45571;-82
2022/03/27 09:13:45;;;;;;;;;27.75;25.00;;;;;-146.03;100.00;60875.16;4961035;28;45606;-82
2022/03/27 09:16:10;;;;;;;;;28.50;27.00;;;;;-146.03;100.00;60875.16;4961373;28;45493;-82
2022/03/27 09:18:52;;;;;;;;;27.75;26.75;;;;;-146.03;100.00;60875.16;4966052;28;45300;-82
2022/03/27 09:21:20;;;;;;;;;32.50;30.75;;;;;-146.03;100.00;60875.16;4965745;28;45446;-82
2022/03/27 09:23:52;;;;;;;;;26.25;23.50;;;;;-146.03;100.00;60875.16;4958319;28;45426;-81
2022/03/27 09:26:17;;;;;;;;;32.50;29.75;;;;;-146.03;100.00;60875.16;4963201;28;45527;-81
2022/03/27 09:28:48;;;;;;;;;26.00;24.50;;;;;-146.03;100.00;60875.16;4959977;28;45504;-81
2022/03/27 09:31:13;;;;;;;;;29.25;23.75;;;;;-146.03;100.00;60875.16;4961402;28;45388;-81
2022/03/27 09:33:56;;;;;;;;;30.75;26.50;;;;;-146.03;100.00;60875.16;4961252;28;45363;-81
2022/03/27 09:36:30;;;;;;;;;25.00;22.00;;;;;-146.03;100.00;60875.16;4956948;28;45403;-81
2022/03/27 09:39:00;;;;;;;;;31.25;27.75;;;;;-146.03;100.00;60875.16;4970958;28;45434;-81
2022/03/27 09:41:31;;;;;;;;;29.50;27.00;;;;;-146.03;100.00;60875.16;4969043;28;45596;-81
2022/03/27 09:44:07;;;;;;;;;31.50;29.00;;;;;-146.03;100.00;60875.16;4979965;28;45337;-81
2022/03/27 09:46:50;;;;;;;;;27.50;25.75;;;;;-146.03;100.00;60875.16;4960275;28;45715;-81
2022/03/27 09:49:18;;;;;;;;;30.00;30.00;;;;;-146.03;100.00;60875.16;4961137;28;45272;-81
2022/03/27 09:52:08;;;;;;;;;30.00;28.00;;;;;-146.03;100.00;60875.16;4962456;28;45512;-81
2022/03/27 09:55:00;;;;;;;;;32.75;27.25;;;;;-146.03;100.00;60875.16;4962951;28;45492;-81
2022/03/27 09:57:31;;;;;;;;;29.75;25.75;;;;;-146.03;100.00;60875.16;4976053;28;46478;-81
2022/03/27 10:00:18;;;;;;;;;27.25;24.25;;;;;-146.03;100.00;60875.16;4957744;28;46319;-80
2022/03/27 10:02:45;;;;;;;;;30.50;26.25;;;;;-146.03;100.00;60875.16;4970219;28;45598;-81
2022/03/27 10:05:15;;;;;;;;;28.25;27.50;;;;;-146.03;100.00;60875.16;4956669;28;45482;-81
2022/03/27 10:07:41;;;;;;;;;31.00;29.75;;;;;-146.03;100.00;60875.16;4956353;28;45785;-81
2022/03/27 10:10:11;;;;;;;;;25.25;24.25;;;;;-146.03;100.00;60875.16;4957599;28;45665;-81
2022/03/27 10:12:38;;;;;;;;;25.50;25.00;;;;;-146.03;100.00;60875.16;4956442;28;45498;-81
2022/03/27 10:15:25;;;;;;;;;35.25;30.00;;;;;-146.03;100.00;60875.16;4957792;28;45463;-81
2022/03/27 10:18:10;;;;;;;;;26.00;23.00;;;;;-146.03;100.00;60875.16;4959615;28;46003;-81
2022/03/27 10:20:37;;;;;;;;;31.50;26.25;;;;;-146.03;100.00;60875.16;4970458;28;45451;-81
2022/03/27 10:23:13;;;;;;;;;33.50;30.00;;;;;-146.03;100.00;60875.16;4955292;28;45387;-82
2022/03/27 10:25:50;;;;;;;;;29.00;25.75;;;;;-146.03;100.00;60875.16;4961722;28;46120;-82
2022/03/27 10:28:20;;;;;;;;;32.25;30.00;;;;;-146.03;100.00;60875.16;4957165;28;45694;-82
2022/03/27 10:30:47;;;;;;;;;33.75;31.00;;;;;-146.03;100.00;60875.16;4958503;28;45445;-81
2022/03/27 10:33:13;;;;;;;;;36.25;32.75;;;;;-146.03;100.00;60875.16;4966153;28;45502;-81
2022/03/27 10:36:00;;;;;;;;;29.00;28.50;;;;;-146.03;100.00;60875.16;4973459;28;45355;-81
2022/03/27 10:38:44;;;;;;;;;32.25;29.75;;;;;-146.03;100.00;60875.16;4964626;28;46097;-81
2022/03/27 10:41:27;;;;;;;;;27.50;25.50;;;;;-146.03;100.00;60875.16;4974397;28;45816;-81
2022/03/27 10:44:11;;;;;;;;;31.00;26.75;;;;;-146.03;100.00;60875.16;4958520;28;45473;-81
2022/03/27 10:46:37;;;;;;;;;26.25;22.25;;;;;-146.03;100.00;60875.16;4962285;28;45636;-81
2022/03/27 10:49:29;;;;;;;;;28.50;25.75;;;;;-146.03;100.00;60875.16;4968193;28;45533;-81
2022/03/27 10:52:04;;;;;;;;;26.50;25.75;;;;;-146.03;100.00;60875.16;4965207;28;45385;-81
2022/03/27 10:54:29;;;;;;;;;37.50;29.50;;;;;-146.03;100.00;60875.16;4965147;28;45478;-81
2022/03/27 10:56:55;;;;;;;;;35.00;30.25;;;;;-146.03;100.00;60875.16;4975931;28;45455;-80
2022/03/27 10:59:23;;;;;;;;;24.75;23.50;;;;;-146.03;100.00;60875.16;4968725;28;47722;-80
2022/03/27 11:01:54;;;;;;;;;30.00;25.50;;;;;-146.03;100.00;60875.16;4959383;28;45463;-80
2022/03/27 11:04:21;;;;;;;;;24.25;23.75;;;;;-146.03;100.00;60875.16;4963052;28;45457;-80